»·PEaware :: N24AS KVNY-KSNA

N24AS :: KVNY-KSNA

FLIGHT INFORMATION

Flight Status: Arrived
Operator: Privately registered:
United States
More flights under this callsign
Pilot: Andrew S. (20703)
Aircraft: PILATUS PC-12 EAGLE
(PC12)
More flights by this aircraft type
Origin: KVNY Van Nuys
United States
Destination: KSNA John Wayne-Orange Co
United States
More flights between these airports :: More routes between these airports
Route: +ADAMM2 ADAMM V186 BAYJY V363 POXKU V8 SLI
File this flight plan on PilotEdge
Remarks:
Altitude:
(Current/Filed)
9,000ft
Speed:
(Current/Filed)
250kts
Departed: 09-Feb-20 08:47 AM
Arrived: 09-Feb-20 09:10 AM
Distance/Time
Traveled:
44nm/0:23
Distance/Time
To Go:
Arrived

Flight Plot

Page will automatically refresh every two minutes.


Map Options




Map Legend


Flown Route
Filed Route
Departure Airport
Arrival Airport
Navaid (VOR, NDB)
Fix

Horizontal Profiles

Position Reports

Time Latitude Longitude Heading Altitude Ground
Speed
09-Feb-20 08:16 34.204447 -118.487010 234 806ft 0kts
09-Feb-20 08:17 34.204447 -118.487010 234 806ft 0kts
09-Feb-20 08:18 34.204447 -118.487010 234 806ft 0kts
09-Feb-20 08:19 34.204447 -118.487010 234 806ft 0kts
09-Feb-20 08:20 34.204447 -118.487010 234 806ft 0kts
09-Feb-20 08:21 34.204447 -118.487010 234 806ft 0kts
09-Feb-20 08:22 34.204447 -118.487010 234 806ft 0kts
09-Feb-20 08:23 34.204447 -118.487010 234 806ft 0kts
09-Feb-20 08:24 34.204447 -118.487010 234 806ft 0kts
09-Feb-20 08:25 34.204447 -118.487010 234 806ft 0kts
09-Feb-20 08:26 34.204447 -118.487010 234 806ft 0kts
09-Feb-20 08:27 34.204447 -118.487010 234 806ft 0kts
09-Feb-20 08:28 34.204447 -118.487010 234 806ft 0kts
09-Feb-20 08:29 34.204447 -118.487010 234 806ft 0kts
09-Feb-20 08:30 34.204447 -118.487010 234 806ft 0kts
09-Feb-20 08:31 34.204447 -118.487010 234 806ft 0kts
09-Feb-20 08:32 34.204447 -118.487010 234 806ft 0kts
09-Feb-20 08:33 34.204447 -118.487011 234 806ft 0kts
09-Feb-20 08:34 34.204447 -118.487011 234 806ft 0kts
09-Feb-20 08:35 34.204447 -118.487011 234 806ft 0kts
09-Feb-20 08:36 34.204447 -118.487011 234 806ft 0kts
09-Feb-20 08:37 34.204447 -118.487011 234 806ft 0kts
09-Feb-20 08:38 34.204447 -118.487011 234 806ft 0kts
09-Feb-20 08:39 34.205573 -118.488370 6 806ft 15kts
09-Feb-20 08:40 34.208257 -118.488228 359 806ft 0kts
09-Feb-20 08:41 34.210901 -118.488415 356 806ft 18kts
09-Feb-20 08:42 34.217067 -118.489291 351 806ft 24kts
09-Feb-20 08:43 34.218500 -118.489472 352 806ft 0kts
09-Feb-20 08:44 34.218738 -118.491228 188 806ft 12kts
09-Feb-20 08:45 34.217987 -118.491134 173 806ft 30kts
09-Feb-20 08:46 34.185647 -118.486911 166 2197ft 147kts
09-Feb-20 08:47 34.162556 -118.449383 124 4911ft 150kts
09-Feb-20 08:48 34.137186 -118.404476 125 4968ft 131kts
09-Feb-20 08:49 34.110310 -118.359592 121 5005ft 197kts
09-Feb-20 08:50 34.075948 -118.302353 125 4980ft 220kts
09-Feb-20 08:51 34.054831 -118.234987 92 4988ft 222kts
09-Feb-20 08:52 34.051555 -118.160104 92 4994ft 223kts
09-Feb-20 08:53 34.047660 -118.085231 97 5001ft 223kts
09-Feb-20 08:54 34.039096 -118.010730 97 5003ft 224kts
09-Feb-20 08:55 34.030639 -117.935664 95 5003ft 224kts
09-Feb-20 08:56 34.022658 -117.860502 96 4995ft 234kts
09-Feb-20 08:57 33.994741 -117.791803 159 4992ft 253kts
09-Feb-20 08:58 33.924237 -117.783758 177 4723ft 261kts
09-Feb-20 08:59 33.863507 -117.785798 186 3997ft 159kts
09-Feb-20 09:00 33.838237 -117.745616 111 4006ft 184kts
09-Feb-20 09:01 33.812826 -117.688255 97 4007ft 197kts
09-Feb-20 09:02 33.845039 -117.680800 292 4012ft 196kts
09-Feb-20 09:03 33.846766 -117.753033 271 4002ft 227kts
09-Feb-20 09:04 33.830889 -117.822691 202 4007ft 226kts
09-Feb-20 09:05 33.782839 -117.842647 194 1483ft 126kts
09-Feb-20 09:06 33.754065 -117.847975 191 442ft 88kts
09-Feb-20 09:07 33.724864 -117.852861 181 696ft 87kts
09-Feb-20 09:08 33.696544 -117.856613 197 474ft 99kts
09-Feb-20 09:09 33.675097 -117.869259 211 60ft 36kts
09-Feb-20 09:10 33.674894 -117.871422 305 60ft 0kts
09-Feb-20 09:11 33.674894 -117.871422 305 60ft 0kts
09-Feb-20 09:12 33.674894 -117.871422 305 60ft 0kts
09-Feb-20 09:13 33.674894 -117.871422 305 60ft 0kts
09-Feb-20 09:14 33.674894 -117.871422 305 60ft 0kts
09-Feb-20 09:15 33.674894 -117.871422 305 60ft 0kts
09-Feb-20 09:16 33.674894 -117.871422 305 60ft 0kts
09-Feb-20 09:17 33.674894 -117.871422 305 60ft 0kts
09-Feb-20 09:18 33.674894 -117.871422 305 60ft 0kts
09-Feb-20 09:19 33.674894 -117.871422 305 60ft 0kts
09-Feb-20 09:20 33.674894 -117.871422 305 60ft 0kts
09-Feb-20 09:21 33.674894 -117.871422 305 60ft 0kts
09-Feb-20 09:22 33.674894 -117.871422 305 60ft 0kts
09-Feb-20 09:23 33.674894 -117.871422 305 60ft 0kts
09-Feb-20 09:24 33.674894 -117.871422 305 60ft 0kts

Navigation Log

Ident Type
Flight plan parsing failed, navigation log unavailable